createdAt,value
2017-01-28T00:00:42.876Z,85.21
2017-01-28T00:01:42.857Z,84.97
2017-01-28T00:02:42.840Z,85.06
2017-01-28T00:03:42.824Z,85.11
2017-01-28T00:04:42.806Z,84.74
2017-01-28T00:05:42.786Z,85.16
2017-01-28T00:06:42.768Z,85.02
2017-01-28T00:07:42.751Z,85.02
2017-01-28T00:08:42.731Z,84.92
2017-01-28T00:09:42.327Z,85.02
2017-01-28T00:10:42.695Z,85.21
2017-01-28T00:11:42.680Z,85.21
2017-01-28T00:12:42.662Z,84.83
2017-01-28T00:13:42.644Z,85.02
2017-01-28T00:14:42.626Z,85.4
2017-01-28T00:15:42.607Z,85.49
2017-01-28T00:16:42.588Z,85.4
2017-01-28T00:17:42.570Z,85.49
2017-01-28T00:18:42.553Z,85.49
2017-01-28T00:19:42.534Z,85.21
2017-01-28T00:20:42.517Z,85.3
2017-01-28T00:21:42.503Z,85.21
2017-01-28T00:22:42.485Z,85.21
2017-01-28T00:23:42.463Z,85.3
2017-01-28T00:24:42.060Z,85.4
2017-01-28T00:25:42.428Z,85.21
2017-01-28T00:26:42.025Z,85.3
2017-01-28T00:27:42.391Z,85.49
2017-01-28T00:28:41.987Z,85.3
2017-01-28T00:29:42.355Z,85.21
2017-01-28T00:30:42.343Z,85.49
2017-01-28T00:31:42.321Z,85.11
2017-01-28T00:32:42.303Z,85.11
2017-01-28T00:33:42.283Z,85.49
2017-01-28T00:34:42.266Z,85.68
2017-01-28T00:35:42.248Z,85.3
2017-01-28T00:36:41.843Z,85.3
2017-01-28T00:37:42.212Z,85.21
2017-01-28T00:38:41.808Z,85.3
2017-01-28T00:39:41.789Z,85.21
2017-01-28T00:40:41.770Z,85.4
2017-01-28T00:41:41.755Z,85.4
2017-01-28T00:42:42.123Z,85.11
2017-01-28T00:43:41.719Z,85.3
2017-01-28T00:44:41.701Z,85.59
2017-01-28T00:45:42.067Z,85.21
2017-01-28T00:46:41.664Z,85.3
2017-01-28T00:47:41.646Z,85.21
2017-01-28T00:48:42.013Z,85.3
2017-01-28T00:49:41.995Z,85.59
2017-01-28T00:50:41.978Z,85.3
2017-01-28T00:51:41.961Z,85.3
2017-01-28T00:52:41.943Z,85.02
2017-01-28T00:53:41.926Z,85.02
2017-01-28T00:54:41.904Z,85.11
2017-01-28T00:55:41.889Z,85.21
2017-01-28T00:56:41.874Z,85.3
2017-01-28T00:57:41.471Z,85.02
2017-01-28T00:58:41.833Z,85.77
2017-01-28T00:59:41.817Z,85.87
2017-01-28T01:00:41.801Z,85.77
2017-01-28T01:01:41.780Z,85.59
2017-01-28T01:02:41.768Z,85.59
2017-01-28T01:03:41.746Z,85.87
2017-01-28T01:04:41.723Z,85.87
2017-01-28T01:05:41.705Z,85.87
2017-01-28T01:06:41.692Z,85.87
2017-01-28T01:07:41.670Z,85.68
2017-01-28T01:08:41.265Z,85.49
2017-01-28T01:09:41.634Z,85.77
2017-01-28T01:10:41.618Z,86.06
2017-01-28T01:11:41.623Z,85.59
2017-01-28T01:12:41.580Z,85.49
2017-01-28T01:13:41.562Z,85.68
2017-01-28T01:14:41.548Z,85.77
2017-01-28T01:15:41.528Z,86.53
2017-01-28T01:16:41.507Z,86.15
2017-01-28T01:17:41.495Z,86.06
2017-01-28T01:18:41.471Z,85.77
2017-01-28T01:19:41.452Z,85.68
2017-01-28T01:20:41.435Z,85.49
2017-01-28T01:21:41.418Z,86.06
2017-01-28T01:22:41.397Z,85.77
2017-01-28T01:23:41.383Z,86.06
2017-01-28T01:24:41.366Z,86.15
2017-01-28T01:25:41.344Z,86.25
2017-01-28T01:26:41.325Z,86.25
2017-01-28T01:27:41.315Z,85.96
2017-01-28T01:28:41.290Z,86.34
2017-01-28T01:29:41.270Z,85.96
2017-01-28T01:30:41.254Z,86.15
2017-01-28T01:31:41.236Z,86.44
2017-01-28T01:32:41.217Z,85.96
2017-01-28T01:33:41.200Z,86.44
2017-01-28T01:34:40.794Z,86.15
2017-01-28T01:35:41.166Z,86.44
2017-01-28T01:36:40.758Z,86.25
2017-01-28T01:37:41.126Z,86.15
2017-01-28T01:38:41.108Z,86.25
2017-01-28T01:39:41.089Z,86.06
2017-01-28T01:40:41.069Z,86.53
2017-01-28T01:41:41.053Z,86.44
2017-01-28T01:42:41.034Z,86.25
2017-01-28T01:43:41.016Z,86.63
2017-01-28T01:44:40.999Z,86.53
2017-01-28T01:45:40.981Z,86.15
2017-01-28T01:46:40.963Z,86.34
2017-01-28T01:47:40.943Z,86.25
2017-01-28T01:48:40.925Z,86.63
2017-01-28T01:49:40.907Z,86.44
2017-01-28T01:50:40.890Z,86.44
2017-01-28T01:51:40.871Z,86.44
2017-01-28T01:52:40.855Z,86.82
2017-01-28T01:53:40.863Z,86.63
2017-01-28T01:54:40.813Z,86.82
2017-01-28T01:55:40.798Z,86.53
2017-01-28T01:56:40.780Z,86.34
2017-01-28T01:57:40.767Z,86.53
2017-01-28T01:58:40.357Z,86.82
2017-01-28T01:59:40.726Z,86.72
2017-01-28T02:00:40.328Z,86.34
2017-01-28T02:01:40.687Z,86.25
2017-01-28T02:02:40.669Z,86.44
2017-01-28T02:03:40.678Z,86.44
2017-01-28T02:04:40.633Z,86.82
2017-01-28T02:05:40.612Z,86.82
2017-01-28T02:06:40.596Z,86.82
2017-01-28T02:07:40.578Z,86.44
2017-01-28T02:08:40.561Z,86.44
2017-01-28T02:09:40.543Z,86.34
2017-01-28T02:10:40.542Z,86.72
2017-01-28T02:11:40.506Z,86.53
2017-01-28T02:12:40.488Z,86.53
2017-01-28T02:13:40.472Z,86.82
2017-01-28T02:14:40.449Z,87.1
2017-01-28T02:15:40.432Z,87
2017-01-28T02:16:40.416Z,86.53
2017-01-28T02:17:40.398Z,86.53
2017-01-28T02:18:39.992Z,86.63
2017-01-28T02:19:40.364Z,86.91
2017-01-28T02:20:40.341Z,86.34
2017-01-28T02:21:40.325Z,86.63
2017-01-28T02:22:40.306Z,86.53
2017-01-28T02:23:40.288Z,86.82
2017-01-28T02:24:40.268Z,86.72
2017-01-28T02:25:40.251Z,86.72
2017-01-28T02:26:40.234Z,86.53
2017-01-28T02:27:40.215Z,86.82
2017-01-28T02:28:40.219Z,86.53
2017-01-28T02:29:40.179Z,86.82
2017-01-28T02:30:40.160Z,86.34
2017-01-28T02:31:40.143Z,86.53
2017-01-28T02:32:40.122Z,86.44
2017-01-28T02:33:40.105Z,86.91
2017-01-28T02:34:40.087Z,86.82
2017-01-28T02:35:40.069Z,86.82
2017-01-28T02:36:40.049Z,86.53
2017-01-28T02:37:40.037Z,87.1
2017-01-28T02:38:40.015Z,87.29
2017-01-28T02:39:39.650Z,86.82
2017-01-28T02:40:39.977Z,86.72
2017-01-28T02:41:39.961Z,86.53
2017-01-28T02:42:39.943Z,86.82
2017-01-28T02:43:39.923Z,86.82
2017-01-28T02:44:39.907Z,86.82
2017-01-28T02:45:39.888Z,86.72
2017-01-28T02:46:39.868Z,86.34
2017-01-28T02:47:39.849Z,86.82
2017-01-28T02:48:39.836Z,86.82
2017-01-28T02:49:39.812Z,86.44
2017-01-28T02:50:39.798Z,86.72
2017-01-28T02:51:39.779Z,86.72
2017-01-28T02:52:39.761Z,86.91
2017-01-28T02:53:39.737Z,86.53
2017-01-28T02:54:39.755Z,86.53
2017-01-28T02:55:39.704Z,86.44
2017-01-28T02:56:39.685Z,86.72
2017-01-28T02:57:39.668Z,86.63
2017-01-28T02:58:39.649Z,86.82
2017-01-28T02:59:39.630Z,86.53
2017-01-28T03:00:39.612Z,86.53
2017-01-28T03:01:39.593Z,86.15
2017-01-28T03:02:39.582Z,86.53
2017-01-28T03:03:39.562Z,86.82
2017-01-28T03:04:39.540Z,87
2017-01-28T03:05:39.134Z,86.34
2017-01-28T03:06:39.513Z,86.91
2017-01-28T03:07:39.483Z,87
2017-01-28T03:08:39.467Z,86.72
2017-01-28T03:09:39.453Z,87
2017-01-28T03:10:39.046Z,86.63
2017-01-28T03:11:39.410Z,86.44
2017-01-28T03:12:39.395Z,86.53
2017-01-28T03:13:38.988Z,87.1
2017-01-28T03:14:39.356Z,86.91
2017-01-28T03:15:39.335Z,86.82
2017-01-28T03:16:39.317Z,86.34
2017-01-28T03:17:39.302Z,86.82
2017-01-28T03:18:39.286Z,86.82
2017-01-28T03:19:39.261Z,86.53
2017-01-28T03:20:39.245Z,86.53
2017-01-28T03:21:39.229Z,86.63
2017-01-28T03:22:39.207Z,86.82
2017-01-28T03:23:39.188Z,86.53
2017-01-28T03:24:39.171Z,86.53
2017-01-28T03:25:39.152Z,86.91
2017-01-28T03:26:39.134Z,86.25
2017-01-28T03:27:39.117Z,86.44
2017-01-28T03:28:38.710Z,86.82
2017-01-28T03:29:39.080Z,86.53
2017-01-28T03:30:39.062Z,86.34
2017-01-28T03:31:39.051Z,86.53
2017-01-28T03:32:39.026Z,86.82
2017-01-28T03:33:38.619Z,86.72
2017-01-28T03:34:38.991Z,87.19
2017-01-28T03:35:38.971Z,86.34
2017-01-28T03:36:38.953Z,86.91
2017-01-28T03:37:38.935Z,86.72
2017-01-28T03:38:38.529Z,86.82
2017-01-28T03:39:38.898Z,86.34
2017-01-28T03:40:38.909Z,86.53
2017-01-28T03:41:38.857Z,86.34
2017-01-28T03:42:38.847Z,86.91
2017-01-28T03:43:38.824Z,86.72
2017-01-28T03:44:38.803Z,86.72
2017-01-28T03:45:38.786Z,87.19
2017-01-28T03:46:38.768Z,86.63
2017-01-28T03:47:38.756Z,86.91
2017-01-28T03:48:38.729Z,86.34
2017-01-28T03:49:38.712Z,86.34
2017-01-28T03:50:38.692Z,86.44
2017-01-28T03:51:38.675Z,86.72
2017-01-28T03:52:38.658Z,86.53
2017-01-28T03:53:38.638Z,86.82
2017-01-28T03:54:38.234Z,86.82
2017-01-28T03:55:38.604Z,86.82
2017-01-28T03:56:38.589Z,86.82
2017-01-28T03:57:38.179Z,86.91
2017-01-28T03:58:38.552Z,86.53
2017-01-28T03:59:38.527Z,86.82
2017-01-28T04:00:38.507Z,86.53
2017-01-28T04:01:38.491Z,86.25
2017-01-28T04:02:38.472Z,86.91
2017-01-28T04:03:38.452Z,86.82
2017-01-28T04:04:38.434Z,86.53
2017-01-28T04:05:38.417Z,86.34
2017-01-28T04:06:38.396Z,86.53
2017-01-28T04:07:38.381Z,86.53
2017-01-28T04:08:38.361Z,86.53
2017-01-28T04:09:38.342Z,86.82
2017-01-28T04:10:38.323Z,86.82
2017-01-28T04:11:38.337Z,86.82
2017-01-28T04:12:38.296Z,86.82
2017-01-28T04:13:38.266Z,86.53
2017-01-28T04:14:38.249Z,86.44
2017-01-28T04:15:38.257Z,86.53
2017-01-28T04:16:38.210Z,86.72
2017-01-28T04:17:38.202Z,86.82
2017-01-28T04:18:38.207Z,86.82
2017-01-28T04:19:38.155Z,86.53
2017-01-28T04:20:38.138Z,87
2017-01-28T04:21:38.119Z,86.91
2017-01-28T04:22:38.105Z,86.82
2017-01-28T04:23:38.087Z,86.82
2017-01-28T04:24:38.066Z,86.72
2017-01-28T04:25:38.045Z,86.82
2017-01-28T04:26:38.027Z,86.53
2017-01-28T04:27:38.007Z,86.82
2017-01-28T04:28:37.987Z,86.72
2017-01-28T04:29:37.972Z,86.72
2017-01-28T04:30:37.954Z,86.82
2017-01-28T04:31:37.932Z,86.53
2017-01-28T04:32:37.916Z,86.53
2017-01-28T04:33:37.898Z,86.82
2017-01-28T04:34:37.882Z,86.91
2017-01-28T04:35:37.859Z,86.91
2017-01-28T04:36:37.842Z,87.1
2017-01-28T04:37:37.824Z,87.1
2017-01-28T04:38:37.805Z,86.82
2017-01-28T04:39:37.785Z,86.53
2017-01-28T04:40:37.770Z,86.53
2017-01-28T04:41:37.748Z,86.82
2017-01-28T04:42:37.730Z,86.63
2017-01-28T04:43:37.711Z,86.82
2017-01-28T04:44:37.694Z,86.44
2017-01-28T04:45:37.674Z,86.63
2017-01-28T04:46:37.656Z,86.63
2017-01-28T04:47:37.639Z,86.53
2017-01-28T04:48:37.621Z,86.77
2017-01-28T04:49:37.600Z,86.77
2017-01-28T04:50:37.582Z,86.77
2017-01-28T04:51:37.561Z,86.91
2017-01-28T04:52:37.547Z,86.68
2017-01-28T04:53:37.524Z,86.53
2017-01-28T04:54:37.506Z,86.77
2017-01-28T04:55:37.488Z,87.05
2017-01-28T04:56:37.469Z,87.24
2017-01-28T04:57:37.450Z,87.24
2017-01-28T04:58:37.431Z,87.24
2017-01-28T04:59:37.414Z,86.87
2017-01-28T05:00:37.395Z,87.34
2017-01-28T05:01:37.375Z,86.96
2017-01-28T05:02:37.355Z,86.87
2017-01-28T05:03:37.338Z,87.15
2017-01-28T05:04:37.320Z,87.24
2017-01-28T05:05:37.302Z,87.24
2017-01-28T05:06:37.283Z,87.19
2017-01-28T05:07:36.878Z,87.05
2017-01-28T05:08:37.244Z,86.4
2017-01-28T05:09:37.238Z,86.96
2017-01-28T05:10:37.209Z,87.34
2017-01-28T05:11:36.812Z,87.15
2017-01-28T05:12:37.172Z,86.96
2017-01-28T05:13:37.152Z,87.05
2017-01-28T05:14:37.137Z,87.05
2017-01-28T05:15:37.115Z,86.87
2017-01-28T05:16:37.097Z,86.77
2017-01-28T05:17:37.082Z,86.77
2017-01-28T05:18:37.062Z,87.05
2017-01-28T05:19:37.039Z,87.05
2017-01-28T05:20:37.023Z,86.87
2017-01-28T05:21:37.001Z,87.05
2017-01-28T05:22:36.984Z,87.05
2017-01-28T05:23:36.965Z,86.77
2017-01-28T05:24:36.972Z,87.34
2017-01-28T05:25:36.928Z,87.24
2017-01-28T05:26:36.913Z,86.96
2017-01-28T05:27:36.893Z,87.24
2017-01-28T05:28:36.871Z,87.24
2017-01-28T05:29:36.468Z,87.24
2017-01-28T05:30:36.835Z,87.24
2017-01-28T05:31:36.817Z,87.05
2017-01-28T05:32:36.798Z,86.87
2017-01-28T05:33:36.779Z,87.24
2017-01-28T05:34:36.762Z,87.24
2017-01-28T05:35:36.742Z,87.34
2017-01-28T05:36:36.723Z,86.96
2017-01-28T05:37:36.706Z,87.34
2017-01-28T05:38:36.686Z,86.87
2017-01-28T05:39:36.668Z,86.87
2017-01-28T05:40:36.650Z,87.15
2017-01-28T05:41:36.632Z,87.05
2017-01-28T05:42:36.612Z,86.87
2017-01-28T05:43:36.593Z,86.96
2017-01-28T05:44:36.575Z,86.96
2017-01-28T05:45:36.556Z,87.05
2017-01-28T05:46:36.538Z,87.24
2017-01-28T05:47:36.518Z,87.24
2017-01-28T05:48:36.501Z,86.4
2017-01-28T05:49:36.485Z,86.49
2017-01-28T05:50:36.468Z,86.87
2017-01-28T05:51:36.064Z,87.24
2017-01-28T05:52:36.425Z,86.3
2017-01-28T05:53:36.405Z,87.15
2017-01-28T05:54:36.387Z,86.96
2017-01-28T05:55:36.371Z,87.05
2017-01-28T05:56:36.352Z,86.87
2017-01-28T05:57:36.331Z,87.05
2017-01-28T05:58:36.314Z,86.87
2017-01-28T05:59:36.298Z,86.87
2017-01-28T06:00:36.277Z,87.15
2017-01-28T06:01:36.260Z,87.99
2017-01-28T06:02:36.243Z,87.34
2017-01-28T06:03:36.221Z,86.87
2017-01-28T06:04:36.203Z,87.43
2017-01-28T06:05:36.183Z,86.87
2017-01-28T06:06:36.165Z,86.87
2017-01-28T06:07:36.173Z,86.77
2017-01-28T06:08:36.160Z,86.96
2017-01-28T06:09:36.109Z,86.77
2017-01-28T06:10:36.096Z,87.05
2017-01-28T06:11:36.071Z,86.87
2017-01-28T06:12:36.055Z,86.96
2017-01-28T06:13:36.034Z,86.96
2017-01-28T06:14:36.023Z,87.62
2017-01-28T06:15:35.999Z,87.52
2017-01-28T06:16:35.984Z,87.71
2017-01-28T06:17:35.960Z,86.96
2017-01-28T06:18:35.941Z,87.05
2017-01-28T06:19:35.924Z,87.71
2017-01-28T06:20:35.904Z,87.62
2017-01-28T06:21:35.883Z,88.56
2017-01-28T06:22:35.868Z,87.71
2017-01-28T06:23:35.848Z,87.52
2017-01-28T06:24:35.828Z,87.71
2017-01-28T06:25:35.813Z,87.71
2017-01-28T06:26:35.795Z,87.52
2017-01-28T06:27:35.779Z,87.71
2017-01-28T06:28:35.754Z,87.05
2017-01-28T06:29:35.734Z,87.52
2017-01-28T06:30:35.720Z,87.15
2017-01-28T06:31:35.696Z,87.24
2017-01-28T06:32:35.679Z,87.62
2017-01-28T06:33:35.661Z,87.52
2017-01-28T06:34:35.641Z,87.05
2017-01-28T06:35:35.625Z,86.96
2017-01-28T06:36:35.604Z,86.87
2017-01-28T06:37:35.586Z,87.24
2017-01-28T06:38:35.574Z,86.77
2017-01-28T06:39:35.546Z,86.77
2017-01-28T06:40:35.531Z,87.24
2017-01-28T06:41:35.512Z,87.05
2017-01-28T06:42:35.496Z,86.96
2017-01-28T06:43:35.472Z,87.05
2017-01-28T06:44:35.453Z,87.05
2017-01-28T06:45:35.462Z,87.05
2017-01-28T06:46:35.418Z,86.87
2017-01-28T06:47:35.398Z,87.71
2017-01-28T06:48:35.379Z,86.87
2017-01-28T06:49:35.359Z,87.62
2017-01-28T06:50:35.343Z,87.52
2017-01-28T06:51:35.324Z,87.15
2017-01-28T06:52:35.305Z,86.77
2017-01-28T06:53:35.296Z,86.68
2017-01-28T06:54:35.269Z,87.62
2017-01-28T06:55:35.249Z,87.15
2017-01-28T06:56:35.228Z,86.96
2017-01-28T06:57:35.211Z,87.24
2017-01-28T06:58:35.193Z,87.05
2017-01-28T06:59:35.175Z,87.43
2017-01-28T07:00:35.154Z,86.96
2017-01-28T07:01:35.142Z,86.87
2017-01-28T07:02:35.114Z,87.05
2017-01-28T07:03:35.100Z,87.52
2017-01-28T07:04:35.082Z,87.24
2017-01-28T07:05:35.063Z,87.24
2017-01-28T07:06:35.044Z,87.62
2017-01-28T07:07:35.024Z,87.62
2017-01-28T07:08:35.004Z,87.71
2017-01-28T07:09:34.986Z,87.81
2017-01-28T07:10:34.967Z,87.71
2017-01-28T07:11:34.948Z,87.81
2017-01-28T07:12:34.930Z,87.05
2017-01-28T07:13:34.914Z,87.43
2017-01-28T07:14:34.895Z,87.62
2017-01-28T07:15:34.873Z,86.68
2017-01-28T07:16:34.853Z,86.87
2017-01-28T07:17:35.190Z,86.87
2017-01-28T07:18:34.819Z,86.96
2017-01-28T07:19:34.799Z,87.1
2017-01-28T07:20:34.780Z,86.91
2017-01-28T07:21:34.763Z,87.85
2017-01-28T07:22:34.747Z,87.19
2017-01-28T07:23:34.725Z,87.66
2017-01-28T07:24:34.706Z,86.82
2017-01-28T07:25:34.692Z,87.85
2017-01-28T07:26:34.671Z,87.48
2017-01-28T07:27:34.651Z,87.19
2017-01-28T07:28:34.636Z,87.19
2017-01-28T07:29:34.614Z,87.38
2017-01-28T07:30:34.600Z,87.1
2017-01-28T07:31:34.575Z,87.29
2017-01-28T07:32:34.563Z,86.72
2017-01-28T07:33:34.542Z,86.63
2017-01-28T07:34:34.524Z,86.72
2017-01-28T07:35:34.507Z,86.53
2017-01-28T07:36:34.486Z,86.25
2017-01-28T07:37:34.474Z,86.44
2017-01-28T07:38:34.453Z,85.96
2017-01-28T07:39:34.432Z,85.59
2017-01-28T07:40:34.414Z,85.49
2017-01-28T07:41:34.396Z,85.02
2017-01-28T07:42:34.381Z,85.4
2017-01-28T07:43:34.364Z,85.59
2017-01-28T07:44:34.343Z,84.92
2017-01-28T07:45:34.324Z,85.02
2017-01-28T07:46:34.309Z,84.74
2017-01-28T07:47:34.292Z,84.74
2017-01-28T07:48:34.274Z,85.4
2017-01-28T07:49:34.254Z,84.83
2017-01-28T07:50:34.237Z,84.17
2017-01-28T07:51:34.218Z,84.17
2017-01-28T07:52:34.199Z,84.08
2017-01-28T07:53:34.184Z,84.45
2017-01-28T07:54:34.178Z,84.45
2017-01-28T07:55:34.149Z,84.17
2017-01-28T07:56:34.135Z,83.89
2017-01-28T07:57:34.112Z,83.8
2017-01-28T07:58:34.095Z,83.7
2017-01-28T07:59:34.077Z,84.27
2017-01-28T08:00:34.063Z,83.89
2017-01-28T08:01:34.068Z,83.61
2017-01-28T08:02:34.023Z,83.98
2017-01-28T08:03:34.007Z,83.98
2017-01-28T08:04:33.988Z,83.89
2017-01-28T08:05:33.973Z,83.93
2017-01-28T08:06:33.953Z,83.93
2017-01-28T08:07:33.937Z,83.55
2017-01-28T08:08:33.920Z,83.27
2017-01-28T08:09:33.900Z,83.46
2017-01-28T08:10:33.883Z,83.17
2017-01-28T08:11:33.866Z,82.89
2017-01-28T08:12:33.853Z,82.89
2017-01-28T08:13:33.831Z,82.61
2017-01-28T08:14:33.815Z,82.7
2017-01-28T08:15:33.797Z,82.23
2017-01-28T08:16:33.780Z,82.14
2017-01-28T08:17:33.766Z,82.89
2017-01-28T08:18:33.361Z,82.89
2017-01-28T08:19:33.727Z,82.42
2017-01-28T08:20:33.713Z,82.04
2017-01-28T08:21:33.693Z,82.23
2017-01-28T08:22:33.675Z,81.57
2017-01-28T08:23:33.657Z,81.95
2017-01-28T08:24:33.639Z,81.57
2017-01-28T08:25:33.621Z,81.76
2017-01-28T08:26:33.631Z,81.48
2017-01-28T08:27:33.587Z,81.2
2017-01-28T08:28:33.570Z,81.57
2017-01-28T08:29:33.552Z,81.2
2017-01-28T08:30:33.535Z,81.29
2017-01-28T08:31:33.518Z,81.01
2017-01-28T08:32:33.501Z,81.01
2017-01-28T08:33:33.097Z,81.2
2017-01-28T08:34:33.464Z,81.01
2017-01-28T08:35:33.454Z,80.63
2017-01-28T08:36:33.434Z,80.82
2017-01-28T08:37:33.420Z,80.91
2017-01-28T08:38:33.400Z,80.44
2017-01-28T08:39:33.382Z,80.25
2017-01-28T08:40:33.367Z,80.44
2017-01-28T08:41:33.349Z,79.97
2017-01-28T08:42:33.329Z,79.97
2017-01-28T08:43:33.312Z,79.68
2017-01-28T08:44:33.296Z,79.97
2017-01-28T08:45:33.278Z,79.68
2017-01-28T08:46:33.262Z,79.78
2017-01-28T08:47:33.243Z,79.49
2017-01-28T08:48:33.227Z,79.78
2017-01-28T08:49:33.209Z,79.4
2017-01-28T08:50:33.226Z,79.59
2017-01-28T08:51:33.175Z,79.78
2017-01-28T08:52:33.160Z,79.68
2017-01-28T08:53:33.147Z,79.25
2017-01-28T08:54:33.124Z,79.44
2017-01-28T08:55:33.107Z,78.97
2017-01-28T08:56:33.091Z,78.97
2017-01-28T08:57:33.076Z,78.97
2017-01-28T08:58:33.072Z,78.59
2017-01-28T08:59:33.039Z,78.5
2017-01-28T09:00:33.026Z,78.78
2017-01-28T09:01:33.007Z,78.68
2017-01-28T09:02:32.992Z,78.78
2017-01-28T09:03:32.974Z,79.44
2017-01-28T09:04:32.955Z,78.78
2017-01-28T09:05:32.939Z,78.68
2017-01-28T09:06:32.928Z,78.4
2017-01-28T09:07:32.905Z,78.12
2017-01-28T09:08:32.889Z,78.02
2017-01-28T09:09:32.879Z,77.55
2017-01-28T09:10:32.858Z,77.74
2017-01-28T09:11:32.840Z,77.45
2017-01-28T09:12:32.827Z,78.21
2017-01-28T09:13:32.805Z,78.21
2017-01-28T09:14:32.791Z,77.74
2017-01-28T09:15:32.772Z,77.64
2017-01-28T09:16:32.758Z,77.26
2017-01-28T09:17:32.741Z,77.64
2017-01-28T09:18:32.723Z,77.93
2017-01-28T09:19:32.709Z,77.26
2017-01-28T09:20:32.693Z,77.55
2017-01-28T09:21:32.675Z,77.93
2017-01-28T09:22:32.659Z,77.74
2017-01-28T09:23:32.642Z,77.08
2017-01-28T09:24:32.625Z,77.83
2017-01-28T09:25:32.610Z,77.26
2017-01-28T09:26:32.592Z,76.98
2017-01-28T09:27:32.577Z,76.61
2017-01-28T09:28:32.560Z,75.95
2017-01-28T09:29:32.571Z,76.32
2017-01-28T09:30:32.528Z,76.23
2017-01-28T09:31:32.512Z,76.14
2017-01-28T09:32:32.492Z,75.85
2017-01-28T09:33:32.477Z,76.14
2017-01-28T09:34:32.461Z,76.14
2017-01-28T09:35:32.448Z,75.95
2017-01-28T09:36:32.431Z,75.89
2017-01-28T09:37:32.413Z,75.95
2017-01-28T09:38:32.396Z,75.98
2017-01-28T09:39:32.379Z,75.51
2017-01-28T09:40:32.368Z,75.42
2017-01-28T09:41:32.357Z,75.32
2017-01-28T09:42:32.333Z,75.23
2017-01-28T09:43:31.931Z,75.32
2017-01-28T09:44:32.300Z,75.89
2017-01-28T09:45:32.284Z,75.6
2017-01-28T09:46:32.267Z,75.7
2017-01-28T09:47:32.252Z,75.23
2017-01-28T09:48:32.235Z,74.95
2017-01-28T09:49:32.218Z,74.66
2017-01-28T09:50:32.203Z,74.57
2017-01-28T09:51:32.187Z,74.57
2017-01-28T09:52:32.172Z,74.19
2017-01-28T09:53:32.156Z,73.71
2017-01-28T09:54:32.141Z,74.19
2017-01-28T09:55:32.125Z,74
2017-01-28T09:56:32.110Z,74
2017-01-28T09:57:32.094Z,74.09
2017-01-28T09:58:32.076Z,73.81
2017-01-28T09:59:32.062Z,73.52
2017-01-28T10:00:32.045Z,73.62
2017-01-28T10:01:32.026Z,73.05
2017-01-28T10:02:32.013Z,73.24
2017-01-28T10:03:31.996Z,73.24
2017-01-28T10:04:31.978Z,73.14
2017-01-28T10:05:31.964Z,72.77
2017-01-28T10:06:31.950Z,72.49
2017-01-28T10:07:31.935Z,72.49
2017-01-28T10:08:31.917Z,72.3
2017-01-28T10:09:31.902Z,72.02
2017-01-28T10:10:31.887Z,72.02
2017-01-28T10:11:31.872Z,72.67
2017-01-28T10:12:31.853Z,72.58
2017-01-28T10:13:31.839Z,72.96
2017-01-28T10:14:31.824Z,72.96
2017-01-28T10:15:31.805Z,72.86
2017-01-28T10:16:31.788Z,73.43
2017-01-28T10:17:31.773Z,73.05
2017-01-28T10:18:31.757Z,73.24
2017-01-28T10:19:31.740Z,73.05
2017-01-28T10:20:31.724Z,72.67
2017-01-28T10:21:31.708Z,72.86
2017-01-28T10:22:31.690Z,72.67
2017-01-28T10:23:31.682Z,72.67
2017-01-28T10:24:31.662Z,72.67
2017-01-28T10:25:31.644Z,72.86
2017-01-28T10:26:31.629Z,73.24
2017-01-28T10:27:31.614Z,73.14
2017-01-28T10:28:31.598Z,73.33
2017-01-28T10:29:31.581Z,73.05
2017-01-28T10:30:31.180Z,72.96
2017-01-28T10:31:31.171Z,73.05
2017-01-28T10:32:31.535Z,72.86
2017-01-28T10:33:31.520Z,72.86
2017-01-28T10:34:31.503Z,72.67
2017-01-28T10:35:31.493Z,72.39
2017-01-28T10:36:31.470Z,72.67
2017-01-28T10:37:31.456Z,72.67
2017-01-28T10:38:31.440Z,72.58
2017-01-28T10:39:31.428Z,72.58
2017-01-28T10:40:31.409Z,71.92
2017-01-28T10:41:31.391Z,71.92
2017-01-28T10:42:31.385Z,71.92
2017-01-28T10:43:31.358Z,71.95
2017-01-28T10:44:31.347Z,71.92
2017-01-28T10:45:31.365Z,71.92
2017-01-28T10:46:31.315Z,71.83
2017-01-28T10:47:31.303Z,72.24
2017-01-28T10:48:31.280Z,71.86
2017-01-28T10:49:31.268Z,72.05
2017-01-28T10:50:31.250Z,71.95
2017-01-28T10:51:31.236Z,71.95
2017-01-28T10:52:31.223Z,71.39
2017-01-28T10:53:31.211Z,71.86
2017-01-28T10:54:31.192Z,71.11
2017-01-28T10:55:31.172Z,70.73
2017-01-28T10:56:31.159Z,71.2
2017-01-28T10:57:31.143Z,70.82
2017-01-28T10:58:31.129Z,71.2
2017-01-28T10:59:31.113Z,70.63
2017-01-28T11:00:31.097Z,70.63
2017-01-28T11:01:31.083Z,70.92
2017-01-28T11:02:31.065Z,71.01
2017-01-28T11:03:31.053Z,70.63
2017-01-28T11:04:31.033Z,70.73
2017-01-28T11:05:31.020Z,70.16
2017-01-28T11:06:31.003Z,70.25
2017-01-28T11:07:30.989Z,70.06
2017-01-28T11:08:30.973Z,69.87
2017-01-28T11:09:30.959Z,70.44
2017-01-28T11:10:30.941Z,70.73
2017-01-28T11:11:30.927Z,70.82
2017-01-28T11:12:30.911Z,71.11
2017-01-28T11:13:30.926Z,70.54
2017-01-28T11:14:30.910Z,70.73
2017-01-28T11:15:30.485Z,70.16
2017-01-28T11:16:30.850Z,70.06
2017-01-28T11:17:30.835Z,69.87
2017-01-28T11:18:30.817Z,69.97
2017-01-28T11:19:30.418Z,70.25
2017-01-28T11:20:30.791Z,69.87
2017-01-28T11:21:30.772Z,69.87
2017-01-28T11:22:30.759Z,69.97
2017-01-28T11:23:30.742Z,69.78
2017-01-28T11:24:30.728Z,69.68
2017-01-28T11:25:30.717Z,69.78
2017-01-28T11:26:30.699Z,69.12
2017-01-28T11:27:30.684Z,69.34
2017-01-28T11:28:30.667Z,68.96
2017-01-28T11:29:30.653Z,69.15
2017-01-28T11:30:30.639Z,68.3
2017-01-28T11:31:30.628Z,68.4
2017-01-28T11:32:30.613Z,68.3
2017-01-28T11:33:30.592Z,68.12
2017-01-28T11:34:30.576Z,68.49
2017-01-28T11:35:30.562Z,67.93
2017-01-28T11:36:30.551Z,67.7
2017-01-28T11:37:30.537Z,67.79
2017-01-28T11:38:30.520Z,67.64
2017-01-28T11:39:30.501Z,67.74
2017-01-28T11:40:30.499Z,67.7
2017-01-28T11:41:30.474Z,68.08
2017-01-28T11:42:30.457Z,67.7
2017-01-28T11:43:30.441Z,68.17
2017-01-28T11:44:30.426Z,68.08
2017-01-28T11:45:30.414Z,67.79
2017-01-28T11:46:30.394Z,67.98
2017-01-28T11:47:30.381Z,68.55
2017-01-28T11:48:30.378Z,68.08
2017-01-28T11:49:30.353Z,68.02
2017-01-28T11:50:30.337Z,67.55
2017-01-28T11:51:30.323Z,67.64
2017-01-28T11:52:30.306Z,67.26
2017-01-28T11:53:30.294Z,67.26
2017-01-28T11:54:30.279Z,67.36
2017-01-28T11:55:30.261Z,67.32
2017-01-28T11:56:30.245Z,67.36
2017-01-28T11:57:30.233Z,67.22
2017-01-28T11:58:30.217Z,67.17
2017-01-28T11:59:30.205Z,67.45
2017-01-28T12:00:30.187Z,67.36
2017-01-28T12:01:30.170Z,67.26
2017-01-28T12:02:30.163Z,67.45
2017-01-28T12:03:29.756Z,67.51
2017-01-28T12:04:30.127Z,67.36
2017-01-28T12:05:30.111Z,67.45
2017-01-28T12:06:30.097Z,67.26
2017-01-28T12:07:30.085Z,67.26
2017-01-28T12:08:30.067Z,67.55
2017-01-28T12:09:30.051Z,67.17
2017-01-28T12:10:30.037Z,67.36
2017-01-28T12:11:30.022Z,66.98
2017-01-28T12:12:30.006Z,67.36
2017-01-28T12:13:29.991Z,67.36
2017-01-28T12:14:29.979Z,67.45
2017-01-28T12:15:29.962Z,67.74
2017-01-28T12:16:29.951Z,67.36
2017-01-28T12:17:29.933Z,67.83
2017-01-28T12:18:29.917Z,67.64
2017-01-28T12:19:29.900Z,67.55
2017-01-28T12:20:29.889Z,66.98
2017-01-28T12:21:29.876Z,67.36
2017-01-28T12:22:29.864Z,67.45
2017-01-28T12:23:29.841Z,66.98
2017-01-28T12:24:29.827Z,67.26
2017-01-28T12:25:29.812Z,67.45
2017-01-28T12:26:29.829Z,67.26
2017-01-28T12:27:29.784Z,67.26
2017-01-28T12:28:29.768Z,67.64
2017-01-28T12:29:29.752Z,67.55
2017-01-28T12:30:29.738Z,67.26
2017-01-28T12:31:29.335Z,67.26
2017-01-28T12:32:29.708Z,67.55
2017-01-28T12:33:29.692Z,66.88
2017-01-28T12:34:29.678Z,67.07
2017-01-28T12:35:29.663Z,66.98
2017-01-28T12:36:29.650Z,66.79
2017-01-28T12:37:29.633Z,67.26
2017-01-28T12:38:29.618Z,66.98
2017-01-28T12:39:29.603Z,66.6
2017-01-28T12:40:29.588Z,66.41
2017-01-28T12:41:29.574Z,67.07
2017-01-28T12:42:29.564Z,66.41
2017-01-28T12:43:29.548Z,66.88
2017-01-28T12:44:29.531Z,66.88
2017-01-28T12:45:29.129Z,66.98
2017-01-28T12:46:29.500Z,66.79
2017-01-28T12:47:29.490Z,67.26
2017-01-28T12:48:29.470Z,66.98
2017-01-28T12:49:29.454Z,67.17
2017-01-28T12:50:29.441Z,67.45
2017-01-28T12:51:29.426Z,66.79
2017-01-28T12:52:29.409Z,66.79
2017-01-28T12:53:29.395Z,66.69
2017-01-28T12:54:29.382Z,66.88
2017-01-28T12:55:29.368Z,66.79